sensor_id;sensor_type;location;lat;lon;timestamp;P1;durP1;ratioP1;P2;durP2;ratioP2
61756;SDS011;57225;61.460;24.060;2023-07-20T00:00:18;0.80;;;0.70;;
61756;SDS011;57225;61.460;24.060;2023-07-20T00:03:13;5.03;;;0.90;;
61756;SDS011;57225;61.460;24.060;2023-07-20T00:06:00;1.23;;;0.82;;
61756;SDS011;57225;61.460;24.060;2023-07-20T00:08:44;2.15;;;1.10;;
61756;SDS011;57225;61.460;24.060;2023-07-20T00:11:29;1.40;;;0.80;;
61756;SDS011;57225;61.460;24.060;2023-07-20T00:14:13;2.00;;;0.70;;
61756;SDS011;57225;61.460;24.060;2023-07-20T00:16:58;0.80;;;0.80;;
61756;SDS011;57225;61.460;24.060;2023-07-20T00:19:42;2.38;;;1.10;;
61756;SDS011;57225;61.460;24.060;2023-07-20T00:22:27;2.30;;;1.00;;
61756;SDS011;57225;61.460;24.060;2023-07-20T00:25:11;3.80;;;0.90;;
61756;SDS011;57225;61.460;24.060;2023-07-20T00:27:56;3.67;;;0.90;;
61756;SDS011;57225;61.460;24.060;2023-07-20T00:30:40;2.88;;;1.38;;
61756;SDS011;57225;61.460;24.060;2023-07-20T00:33:25;1.33;;;1.02;;
61756;SDS011;57225;61.460;24.060;2023-07-20T00:36:10;1.90;;;0.95;;
61756;SDS011;57225;61.460;24.060;2023-07-20T00:38:54;1.75;;;0.82;;
61756;SDS011;57225;61.460;24.060;2023-07-20T00:41:39;1.63;;;0.90;;
61756;SDS011;57225;61.460;24.060;2023-07-20T00:44:23;1.70;;;0.88;;
61756;SDS011;57225;61.460;24.060;2023-07-20T00:47:08;2.63;;;1.20;;
61756;SDS011;57225;61.460;24.060;2023-07-20T00:49:52;2.10;;;0.88;;
61756;SDS011;57225;61.460;24.060;2023-07-20T00:52:38;0.88;;;0.80;;
61756;SDS011;57225;61.460;24.060;2023-07-20T00:55:25;1.70;;;0.95;;
61756;SDS011;57225;61.460;24.060;2023-07-20T00:58:10;1.15;;;0.70;;
61756;SDS011;57225;61.460;24.060;2023-07-20T01:04:00;4.60;;;1.10;;
61756;SDS011;57225;61.460;24.060;2023-07-20T01:06:46;0.80;;;0.80;;
61756;SDS011;57225;61.460;24.060;2023-07-20T01:12:42;1.02;;;0.77;;
61756;SDS011;57225;61.460;24.060;2023-07-20T01:15:27;1.48;;;1.00;;
61756;SDS011;57225;61.460;24.060;2023-07-20T01:18:12;2.25;;;0.95;;
61756;SDS011;57225;61.460;24.060;2023-07-20T01:20:59;2.30;;;1.10;;
61756;SDS011;57225;61.460;24.060;2023-07-20T01:23:55;1.63;;;1.08;;
61756;SDS011;57225;61.460;24.060;2023-07-20T01:27:00;1.25;;;0.90;;
61756;SDS011;57225;61.460;24.060;2023-07-20T01:33:35;2.45;;;1.08;;
61756;SDS011;57225;61.460;24.060;2023-07-20T01:36:21;4.13;;;1.13;;
61756;SDS011;57225;61.460;24.060;2023-07-20T01:39:08;2.00;;;1.10;;
61756;SDS011;57225;61.460;24.060;2023-07-20T01:41:53;2.13;;;1.05;;
61756;SDS011;57225;61.460;24.060;2023-07-20T01:44:39;2.83;;;1.10;;
61756;SDS011;57225;61.460;24.060;2023-07-20T01:47:24;1.35;;;0.93;;
61756;SDS011;57225;61.460;24.060;2023-07-20T01:50:08;0.93;;;0.93;;
61756;SDS011;57225;61.460;24.060;2023-07-20T01:52:52;1.95;;;1.10;;
61756;SDS011;57225;61.460;24.060;2023-07-20T01:55:37;1.27;;;0.80;;
61756;SDS011;57225;61.460;24.060;2023-07-20T01:58:21;2.17;;;1.00;;
61756;SDS011;57225;61.460;24.060;2023-07-20T02:01:18;1.58;;;0.85;;
61756;SDS011;57225;61.460;24.060;2023-07-20T02:04:02;2.22;;;1.13;;
61756;SDS011;57225;61.460;24.060;2023-07-20T02:06:47;4.13;;;1.00;;
61756;SDS011;57225;61.460;24.060;2023-07-20T02:09:31;1.70;;;1.02;;
61756;SDS011;57225;61.460;24.060;2023-07-20T02:12:16;2.13;;;1.30;;
61756;SDS011;57225;61.460;24.060;2023-07-20T02:15:01;1.23;;;1.13;;
61756;SDS011;57225;61.460;24.060;2023-07-20T02:17:46;1.05;;;1.00;;
61756;SDS011;57225;61.460;24.060;2023-07-20T02:20:31;1.10;;;0.90;;
61756;SDS011;57225;61.460;24.060;2023-07-20T02:23:15;1.75;;;0.88;;
61756;SDS011;57225;61.460;24.060;2023-07-20T02:26:00;1.27;;;0.90;;
61756;SDS011;57225;61.460;24.060;2023-07-20T02:28:44;2.70;;;0.80;;
61756;SDS011;57225;61.460;24.060;2023-07-20T02:31:28;2.08;;;1.00;;
61756;SDS011;57225;61.460;24.060;2023-07-20T02:34:13;0.88;;;0.80;;
61756;SDS011;57225;61.460;24.060;2023-07-20T02:36:57;1.27;;;1.00;;
61756;SDS011;57225;61.460;24.060;2023-07-20T02:39:44;1.58;;;0.80;;
61756;SDS011;57225;61.460;24.060;2023-07-20T02:42:29;1.98;;;0.90;;
61756;SDS011;57225;61.460;24.060;2023-07-20T02:45:13;1.85;;;0.88;;
61756;SDS011;57225;61.460;24.060;2023-07-20T02:47:57;1.08;;;0.90;;
61756;SDS011;57225;61.460;24.060;2023-07-20T02:50:43;1.80;;;0.98;;
61756;SDS011;57225;61.460;24.060;2023-07-20T02:53:30;3.17;;;1.10;;
61756;SDS011;57225;61.460;24.060;2023-07-20T02:56:15;1.08;;;0.98;;
61756;SDS011;57225;61.460;24.060;2023-07-20T02:59:01;1.00;;;0.90;;
61756;SDS011;57225;61.460;24.060;2023-07-20T03:01:46;1.75;;;0.90;;
61756;SDS011;57225;61.460;24.060;2023-07-20T03:04:31;1.17;;;1.00;;
61756;SDS011;57225;61.460;24.060;2023-07-20T03:07:16;2.75;;;1.20;;
61756;SDS011;57225;61.460;24.060;2023-07-20T03:10:00;2.00;;;0.90;;
61756;SDS011;57225;61.460;24.060;2023-07-20T03:12:45;3.50;;;0.95;;
61756;SDS011;57225;61.460;24.060;2023-07-20T03:15:30;1.67;;;0.90;;
61756;SDS011;57225;61.460;24.060;2023-07-20T03:18:14;2.05;;;1.00;;
61756;SDS011;57225;61.460;24.060;2023-07-20T03:20:59;1.88;;;0.93;;
61756;SDS011;57225;61.460;24.060;2023-07-20T03:23:44;2.75;;;1.05;;
61756;SDS011;57225;61.460;24.060;2023-07-20T03:26:29;3.10;;;1.02;;
61756;SDS011;57225;61.460;24.060;2023-07-20T03:29:14;1.55;;;1.02;;
61756;SDS011;57225;61.460;24.060;2023-07-20T03:31:59;1.98;;;1.15;;
61756;SDS011;57225;61.460;24.060;2023-07-20T03:34:44;2.13;;;1.00;;
61756;SDS011;57225;61.460;24.060;2023-07-20T03:37:29;2.78;;;1.17;;
61756;SDS011;57225;61.460;24.060;2023-07-20T03:40:13;2.50;;;1.08;;
61756;SDS011;57225;61.460;24.060;2023-07-20T03:42:59;3.13;;;1.30;;
61756;SDS011;57225;61.460;24.060;2023-07-20T03:45:43;4.13;;;1.05;;
61756;SDS011;57225;61.460;24.060;2023-07-20T03:48:29;2.05;;;0.98;;
61756;SDS011;57225;61.460;24.060;2023-07-20T03:51:13;1.42;;;0.95;;
61756;SDS011;57225;61.460;24.060;2023-07-20T03:53:58;1.23;;;1.13;;
61756;SDS011;57225;61.460;24.060;2023-07-20T03:56:43;0.90;;;0.82;;
61756;SDS011;57225;61.460;24.060;2023-07-20T03:59:27;2.30;;;0.93;;
61756;SDS011;57225;61.460;24.060;2023-07-20T04:02:12;1.10;;;1.00;;
61756;SDS011;57225;61.460;24.060;2023-07-20T04:04:56;1.67;;;0.90;;
61756;SDS011;57225;61.460;24.060;2023-07-20T04:07:41;1.90;;;1.00;;
61756;SDS011;57225;61.460;24.060;2023-07-20T04:10:25;2.70;;;1.17;;
61756;SDS011;57225;61.460;24.060;2023-07-20T04:13:10;2.83;;;1.20;;
61756;SDS011;57225;61.460;24.060;2023-07-20T04:15:54;1.98;;;0.90;;
61756;SDS011;57225;61.460;24.060;2023-07-20T04:18:39;1.13;;;1.02;;
61756;SDS011;57225;61.460;24.060;2023-07-20T04:21:25;1.45;;;1.08;;
61756;SDS011;57225;61.460;24.060;2023-07-20T04:24:10;2.88;;;1.15;;
61756;SDS011;57225;61.460;24.060;2023-07-20T04:26:55;2.42;;;1.10;;
61756;SDS011;57225;61.460;24.060;2023-07-20T04:29:39;1.70;;;1.08;;
61756;SDS011;57225;61.460;24.060;2023-07-20T04:32:24;1.55;;;1.38;;
61756;SDS011;57225;61.460;24.060;2023-07-20T04:35:09;1.77;;;1.00;;
61756;SDS011;57225;61.460;24.060;2023-07-20T04:37:53;2.00;;;1.08;;
61756;SDS011;57225;61.460;24.060;2023-07-20T04:40:38;2.17;;;1.20;;
61756;SDS011;57225;61.460;24.060;2023-07-20T04:43:22;3.08;;;1.20;;
61756;SDS011;57225;61.460;24.060;2023-07-20T04:46:07;2.17;;;1.30;;
61756;SDS011;57225;61.460;24.060;2023-07-20T04:48:51;2.75;;;1.60;;
61756;SDS011;57225;61.460;24.060;2023-07-20T04:51:36;1.70;;;1.40;;
61756;SDS011;57225;61.460;24.060;2023-07-20T04:54:20;2.38;;;1.30;;
61756;SDS011;57225;61.460;24.060;2023-07-20T04:57:09;1.88;;;1.30;;
61756;SDS011;57225;61.460;24.060;2023-07-20T04:59:54;1.83;;;1.15;;
61756;SDS011;57225;61.460;24.060;2023-07-20T05:02:39;2.88;;;0.98;;
61756;SDS011;57225;61.460;24.060;2023-07-20T05:05:24;1.88;;;1.10;;
61756;SDS011;57225;61.460;24.060;2023-07-20T05:08:08;1.60;;;1.00;;
61756;SDS011;57225;61.460;24.060;2023-07-20T05:10:53;2.33;;;1.20;;
61756;SDS011;57225;61.460;24.060;2023-07-20T05:13:38;1.77;;;1.25;;
61756;SDS011;57225;61.460;24.060;2023-07-20T05:16:22;3.13;;;1.73;;
61756;SDS011;57225;61.460;24.060;2023-07-20T05:19:06;12.52;;;2.30;;
61756;SDS011;57225;61.460;24.060;2023-07-20T05:21:51;24.15;;;3.60;;
61756;SDS011;57225;61.460;24.060;2023-07-20T05:24:35;32.53;;;4.10;;
61756;SDS011;57225;61.460;24.060;2023-07-20T05:27:20;20.98;;;3.50;;
61756;SDS011;57225;61.460;24.060;2023-07-20T05:30:05;13.20;;;2.45;;
61756;SDS011;57225;61.460;24.060;2023-07-20T05:32:50;10.73;;;2.28;;
61756;SDS011;57225;61.460;24.060;2023-07-20T05:35:36;11.20;;;2.65;;
61756;SDS011;57225;61.460;24.060;2023-07-20T05:38:21;13.05;;;2.08;;
61756;SDS011;57225;61.460;24.060;2023-07-20T05:41:05;8.45;;;2.15;;
61756;SDS011;57225;61.460;24.060;2023-07-20T05:43:54;6.28;;;1.60;;
61756;SDS011;57225;61.460;24.060;2023-07-20T05:46:38;6.68;;;1.52;;
61756;SDS011;57225;61.460;24.060;2023-07-20T05:49:23;2.47;;;1.20;;
61756;SDS011;57225;61.460;24.060;2023-07-20T05:52:07;2.35;;;1.60;;
61756;SDS011;57225;61.460;24.060;2023-07-20T05:54:52;3.17;;;1.35;;
61756;SDS011;57225;61.460;24.060;2023-07-20T05:57:36;2.15;;;1.23;;
61756;SDS011;57225;61.460;24.060;2023-07-20T06:03:10;2.45;;;1.33;;
61756;SDS011;57225;61.460;24.060;2023-07-20T06:05:59;2.47;;;1.30;;
61756;SDS011;57225;61.460;24.060;2023-07-20T06:08:44;3.35;;;1.55;;
61756;SDS011;57225;61.460;24.060;2023-07-20T06:11:32;6.88;;;1.60;;
61756;SDS011;57225;61.460;24.060;2023-07-20T06:14:17;2.22;;;1.40;;
61756;SDS011;57225;61.460;24.060;2023-07-20T06:17:02;2.63;;;1.38;;
61756;SDS011;57225;61.460;24.060;2023-07-20T06:19:46;3.38;;;1.33;;
61756;SDS011;57225;61.460;24.060;2023-07-20T06:22:31;1.63;;;1.17;;
61756;SDS011;57225;61.460;24.060;2023-07-20T06:25:15;4.28;;;1.30;;
61756;SDS011;57225;61.460;24.060;2023-07-20T06:28:00;5.32;;;1.23;;
61756;SDS011;57225;61.460;24.060;2023-07-20T06:30:45;1.65;;;1.20;;
61756;SDS011;57225;61.460;24.060;2023-07-20T06:33:29;4.53;;;1.30;;
61756;SDS011;57225;61.460;24.060;2023-07-20T06:36:17;2.75;;;1.25;;
61756;SDS011;57225;61.460;24.060;2023-07-20T06:39:03;1.65;;;1.13;;
61756;SDS011;57225;61.460;24.060;2023-07-20T06:41:47;2.90;;;1.00;;
61756;SDS011;57225;61.460;24.060;2023-07-20T06:44:32;3.50;;;1.30;;
61756;SDS011;57225;61.460;24.060;2023-07-20T06:47:16;1.23;;;0.98;;
61756;SDS011;57225;61.460;24.060;2023-07-20T06:50:01;1.73;;;1.10;;
61756;SDS011;57225;61.460;24.060;2023-07-20T06:52:45;1.17;;;0.88;;
61756;SDS011;57225;61.460;24.060;2023-07-20T06:55:31;2.20;;;0.90;;
61756;SDS011;57225;61.460;24.060;2023-07-20T06:58:16;3.78;;;0.90;;
61756;SDS011;57225;61.460;24.060;2023-07-20T07:01:05;1.98;;;1.00;;
61756;SDS011;57225;61.460;24.060;2023-07-20T07:03:50;3.13;;;1.10;;
61756;SDS011;57225;61.460;24.060;2023-07-20T07:06:34;2.75;;;1.00;;
61756;SDS011;57225;61.460;24.060;2023-07-20T07:09:20;1.23;;;0.90;;
61756;SDS011;57225;61.460;24.060;2023-07-20T07:12:06;1.95;;;1.23;;
61756;SDS011;57225;61.460;24.060;2023-07-20T07:14:51;8.18;;;1.63;;
61756;SDS011;57225;61.460;24.060;2023-07-20T07:17:36;3.38;;;1.23;;
61756;SDS011;57225;61.460;24.060;2023-07-20T07:20:21;5.65;;;1.30;;
61756;SDS011;57225;61.460;24.060;2023-07-20T07:23:06;2.47;;;1.20;;
61756;SDS011;57225;61.460;24.060;2023-07-20T07:25:50;3.28;;;1.20;;
61756;SDS011;57225;61.460;24.060;2023-07-20T07:28:35;2.13;;;1.00;;
61756;SDS011;57225;61.460;24.060;2023-07-20T07:31:20;1.80;;;0.95;;
61756;SDS011;57225;61.460;24.060;2023-07-20T07:34:04;1.25;;;1.05;;
61756;SDS011;57225;61.460;24.060;2023-07-20T07:36:49;1.92;;;0.90;;
61756;SDS011;57225;61.460;24.060;2023-07-20T07:39:34;4.60;;;0.80;;
61756;SDS011;57225;61.460;24.060;2023-07-20T07:42:19;1.55;;;0.90;;
61756;SDS011;57225;61.460;24.060;2023-07-20T07:45:04;1.42;;;0.90;;
61756;SDS011;57225;61.460;24.060;2023-07-20T07:47:49;3.25;;;0.95;;
61756;SDS011;57225;61.460;24.060;2023-07-20T07:50:33;1.58;;;1.02;;
61756;SDS011;57225;61.460;24.060;2023-07-20T07:53:33;5.10;;;1.20;;
61756;SDS011;57225;61.460;24.060;2023-07-20T07:56:19;2.65;;;1.10;;
61756;SDS011;57225;61.460;24.060;2023-07-20T07:59:06;1.65;;;0.98;;
61756;SDS011;57225;61.460;24.060;2023-07-20T08:01:51;2.50;;;1.20;;
61756;SDS011;57225;61.460;24.060;2023-07-20T08:04:36;1.20;;;1.10;;
61756;SDS011;57225;61.460;24.060;2023-07-20T08:07:20;2.60;;;1.00;;
61756;SDS011;57225;61.460;24.060;2023-07-20T08:10:05;4.78;;;1.05;;
61756;SDS011;57225;61.460;24.060;2023-07-20T08:12:50;2.38;;;1.00;;
61756;SDS011;57225;61.460;24.060;2023-07-20T08:15:34;2.90;;;0.88;;
61756;SDS011;57225;61.460;24.060;2023-07-20T08:18:19;3.60;;;1.00;;
61756;SDS011;57225;61.460;24.060;2023-07-20T08:21:05;8.32;;;1.05;;
61756;SDS011;57225;61.460;24.060;2023-07-20T08:23:52;2.53;;;0.70;;
61756;SDS011;57225;61.460;24.060;2023-07-20T08:26:36;0.73;;;0.70;;
61756;SDS011;57225;61.460;24.060;2023-07-20T08:29:21;2.67;;;0.70;;
61756;SDS011;57225;61.460;24.060;2023-07-20T08:32:05;1.15;;;0.70;;
61756;SDS011;57225;61.460;24.060;2023-07-20T08:34:50;1.00;;;0.50;;
61756;SDS011;57225;61.460;24.060;2023-07-20T08:37:35;0.77;;;0.50;;
61756;SDS011;57225;61.460;24.060;2023-07-20T08:40:20;2.03;;;0.52;;
61756;SDS011;57225;61.460;24.060;2023-07-20T08:43:04;1.42;;;0.50;;
61756;SDS011;57225;61.460;24.060;2023-07-20T08:45:49;2.95;;;0.57;;
61756;SDS011;57225;61.460;24.060;2023-07-20T08:48:38;0.73;;;0.52;;
61756;SDS011;57225;61.460;24.060;2023-07-20T08:51:24;2.92;;;0.65;;
61756;SDS011;57225;61.460;24.060;2023-07-20T08:54:10;5.32;;;0.75;;
61756;SDS011;57225;61.460;24.060;2023-07-20T08:56:57;1.23;;;0.50;;
61756;SDS011;57225;61.460;24.060;2023-07-20T08:59:45;1.13;;;0.50;;
61756;SDS011;57225;61.460;24.060;2023-07-20T09:02:29;1.67;;;0.50;;
61756;SDS011;57225;61.460;24.060;2023-07-20T09:05:30;2.40;;;0.50;;
61756;SDS011;57225;61.460;24.060;2023-07-20T09:08:15;2.97;;;0.60;;
61756;SDS011;57225;61.460;24.060;2023-07-20T09:10:59;1.90;;;0.63;;
61756;SDS011;57225;61.460;24.060;2023-07-20T09:13:44;2.63;;;0.57;;
61756;SDS011;57225;61.460;24.060;2023-07-20T09:16:28;0.68;;;0.55;;
61756;SDS011;57225;61.460;24.060;2023-07-20T09:19:14;1.85;;;0.60;;
61756;SDS011;57225;61.460;24.060;2023-07-20T09:21:59;1.27;;;0.40;;
61756;SDS011;57225;61.460;24.060;2023-07-20T09:24:44;1.38;;;0.30;;
61756;SDS011;57225;61.460;24.060;2023-07-20T09:27:38;2.80;;;0.50;;
61756;SDS011;57225;61.460;24.060;2023-07-20T09:30:26;0.80;;;0.40;;
61756;SDS011;57225;61.460;24.060;2023-07-20T09:33:18;1.35;;;0.40;;
61756;SDS011;57225;61.460;24.060;2023-07-20T09:36:04;0.88;;;0.30;;
61756;SDS011;57225;61.460;24.060;2023-07-20T09:38:48;0.85;;;0.30;;
61756;SDS011;57225;61.460;24.060;2023-07-20T09:41:40;0.52;;;0.20;;
61756;SDS011;57225;61.460;24.060;2023-07-20T09:44:27;2.63;;;0.30;;
61756;SDS011;57225;61.460;24.060;2023-07-20T09:47:12;1.58;;;0.30;;
61756;SDS011;57225;61.460;24.060;2023-07-20T09:50:00;2.30;;;0.28;;
61756;SDS011;57225;61.460;24.060;2023-07-20T09:52:44;1.08;;;0.30;;
61756;SDS011;57225;61.460;24.060;2023-07-20T09:55:29;1.98;;;0.40;;
61756;SDS011;57225;61.460;24.060;2023-07-20T09:58:14;1.05;;;0.32;;
61756;SDS011;57225;61.460;24.060;2023-07-20T10:00:59;4.30;;;0.60;;
61756;SDS011;57225;61.460;24.060;2023-07-20T10:03:54;1.48;;;0.47;;
61756;SDS011;57225;61.460;24.060;2023-07-20T10:06:42;0.38;;;0.20;;
61756;SDS011;57225;61.460;24.060;2023-07-20T10:09:30;1.60;;;0.30;;
61756;SDS011;57225;61.460;24.060;2023-07-20T10:12:16;0.77;;;0.38;;
61756;SDS011;57225;61.460;24.060;2023-07-20T10:19:03;0.47;;;0.43;;
61756;SDS011;57225;61.460;24.060;2023-07-20T10:21:35;1.58;;;0.30;;
61756;SDS011;57225;61.460;24.060;2023-07-20T10:24:26;1.10;;;0.20;;
61756;SDS011;57225;61.460;24.060;2023-07-20T10:27:12;1.88;;;0.43;;
61756;SDS011;57225;61.460;24.060;2023-07-20T10:29:57;2.33;;;0.50;;
61756;SDS011;57225;61.460;24.060;2023-07-20T10:32:42;0.20;;;0.20;;
61756;SDS011;57225;61.460;24.060;2023-07-20T10:35:28;1.38;;;0.30;;
61756;SDS011;57225;61.460;24.060;2023-07-20T10:38:12;2.20;;;0.45;;
61756;SDS011;57225;61.460;24.060;2023-07-20T10:40:57;0.55;;;0.30;;
61756;SDS011;57225;61.460;24.060;2023-07-20T10:43:45;0.47;;;0.30;;
61756;SDS011;57225;61.460;24.060;2023-07-20T10:49:23;0.68;;;0.30;;
61756;SDS011;57225;61.460;24.060;2023-07-20T10:52:10;0.20;;;0.20;;
61756;SDS011;57225;61.460;24.060;2023-07-20T10:54:55;1.55;;;0.25;;
61756;SDS011;57225;61.460;24.060;2023-07-20T10:57:39;0.45;;;0.35;;
61756;SDS011;57225;61.460;24.060;2023-07-20T11:00:24;2.47;;;0.30;;
61756;SDS011;57225;61.460;24.060;2023-07-20T11:03:08;1.83;;;0.30;;
61756;SDS011;57225;61.460;24.060;2023-07-20T11:05:53;0.32;;;0.30;;
61756;SDS011;57225;61.460;24.060;2023-07-20T11:08:40;1.08;;;0.38;;
61756;SDS011;57225;61.460;24.060;2023-07-20T11:11:26;7.45;;;0.30;;
61756;SDS011;57225;61.460;24.060;2023-07-20T11:14:22;0.98;;;0.30;;
61756;SDS011;57225;61.460;24.060;2023-07-20T11:17:11;1.27;;;0.40;;
61756;SDS011;57225;61.460;24.060;2023-07-20T11:19:57;0.50;;;0.30;;
61756;SDS011;57225;61.460;24.060;2023-07-20T11:22:44;0.33;;;0.27;;
61756;SDS011;57225;61.460;24.060;2023-07-20T11:25:39;1.33;;;0.30;;
61756;SDS011;57225;61.460;24.060;2023-07-20T11:28:24;0.63;;;0.30;;
61756;SDS011;57225;61.460;24.060;2023-07-20T11:31:09;1.10;;;0.50;;
61756;SDS011;57225;61.460;24.060;2023-07-20T11:33:53;0.57;;;0.40;;
61756;SDS011;57225;61.460;24.060;2023-07-20T11:36:38;1.55;;;0.38;;
61756;SDS011;57225;61.460;24.060;2023-07-20T11:39:24;0.55;;;0.32;;
61756;SDS011;57225;61.460;24.060;2023-07-20T11:42:10;0.10;;;0.10;;
61756;SDS011;57225;61.460;24.060;2023-07-20T11:44:56;2.60;;;0.20;;
61756;SDS011;57225;61.460;24.060;2023-07-20T11:47:44;1.73;;;0.50;;
61756;SDS011;57225;61.460;24.060;2023-07-20T11:50:29;0.30;;;0.20;;
61756;SDS011;57225;61.460;24.060;2023-07-20T11:53:32;0.65;;;0.40;;
61756;SDS011;57225;61.460;24.060;2023-07-20T11:56:19;3.40;;;0.35;;
61756;SDS011;57225;61.460;24.060;2023-07-20T11:59:04;2.08;;;0.40;;
61756;SDS011;57225;61.460;24.060;2023-07-20T12:01:50;1.65;;;0.20;;
61756;SDS011;57225;61.460;24.060;2023-07-20T12:04:36;3.05;;;0.40;;
61756;SDS011;57225;61.460;24.060;2023-07-20T12:07:21;0.38;;;0.30;;
61756;SDS011;57225;61.460;24.060;2023-07-20T12:10:09;0.52;;;0.28;;
61756;SDS011;57225;61.460;24.060;2023-07-20T12:13:00;1.73;;;0.40;;
61756;SDS011;57225;61.460;24.060;2023-07-20T12:15:46;2.22;;;0.40;;
61756;SDS011;57225;61.460;24.060;2023-07-20T12:18:34;1.95;;;0.20;;
61756;SDS011;57225;61.460;24.060;2023-07-20T12:21:19;0.63;;;0.32;;
61756;SDS011;57225;61.460;24.060;2023-07-20T12:24:04;1.33;;;0.40;;
61756;SDS011;57225;61.460;24.060;2023-07-20T12:26:49;0.88;;;0.38;;
61756;SDS011;57225;61.460;24.060;2023-07-20T12:29:41;0.80;;;0.20;;
61756;SDS011;57225;61.460;24.060;2023-07-20T12:32:26;1.85;;;0.40;;
61756;SDS011;57225;61.460;24.060;2023-07-20T12:35:10;2.63;;;0.38;;
61756;SDS011;57225;61.460;24.060;2023-07-20T12:37:55;1.35;;;0.60;;
61756;SDS011;57225;61.460;24.060;2023-07-20T12:40:39;1.27;;;0.43;;
61756;SDS011;57225;61.460;24.060;2023-07-20T12:43:24;1.20;;;0.50;;
61756;SDS011;57225;61.460;24.060;2023-07-20T12:46:08;0.88;;;0.40;;
61756;SDS011;57225;61.460;24.060;2023-07-20T12:48:53;1.20;;;0.50;;
61756;SDS011;57225;61.460;24.060;2023-07-20T12:51:38;0.60;;;0.40;;
61756;SDS011;57225;61.460;24.060;2023-07-20T12:54:22;2.40;;;0.50;;
61756;SDS011;57225;61.460;24.060;2023-07-20T12:57:07;5.45;;;0.70;;
61756;SDS011;57225;61.460;24.060;2023-07-20T12:59:51;1.75;;;0.50;;
61756;SDS011;57225;61.460;24.060;2023-07-20T13:02:36;3.15;;;0.40;;
61756;SDS011;57225;61.460;24.060;2023-07-20T13:05:20;3.92;;;0.65;;
61756;SDS011;57225;61.460;24.060;2023-07-20T13:08:04;3.60;;;0.70;;
61756;SDS011;57225;61.460;24.060;2023-07-20T13:10:49;7.75;;;0.82;;
61756;SDS011;57225;61.460;24.060;2023-07-20T13:13:35;5.10;;;0.75;;
61756;SDS011;57225;61.460;24.060;2023-07-20T13:16:19;3.05;;;0.73;;
61756;SDS011;57225;61.460;24.060;2023-07-20T13:19:04;1.45;;;0.55;;
61756;SDS011;57225;61.460;24.060;2023-07-20T13:21:49;1.60;;;0.60;;
61756;SDS011;57225;61.460;24.060;2023-07-20T13:24:33;4.57;;;0.77;;
61756;SDS011;57225;61.460;24.060;2023-07-20T13:27:17;1.85;;;0.85;;
61756;SDS011;57225;61.460;24.060;2023-07-20T13:30:02;0.95;;;0.60;;
61756;SDS011;57225;61.460;24.060;2023-07-20T13:32:53;2.75;;;0.70;;
61756;SDS011;57225;61.460;24.060;2023-07-20T13:35:37;4.20;;;0.68;;
61756;SDS011;57225;61.460;24.060;2023-07-20T13:38:22;4.28;;;0.70;;
61756;SDS011;57225;61.460;24.060;2023-07-20T13:41:06;0.63;;;0.60;;
61756;SDS011;57225;61.460;24.060;2023-07-20T13:43:51;5.30;;;0.93;;
61756;SDS011;57225;61.460;24.060;2023-07-20T13:46:35;2.50;;;0.98;;
61756;SDS011;57225;61.460;24.060;2023-07-20T13:49:20;2.60;;;1.23;;
61756;SDS011;57225;61.460;24.060;2023-07-20T13:52:04;2.85;;;1.40;;
61756;SDS011;57225;61.460;24.060;2023-07-20T13:54:49;2.08;;;1.20;;
61756;SDS011;57225;61.460;24.060;2023-07-20T13:57:34;1.00;;;0.80;;
61756;SDS011;57225;61.460;24.060;2023-07-20T14:00:18;1.23;;;0.82;;
61756;SDS011;57225;61.460;24.060;2023-07-20T14:03:03;3.28;;;0.70;;
61756;SDS011;57225;61.460;24.060;2023-07-20T14:05:47;2.33;;;0.93;;
61756;SDS011;57225;61.460;24.060;2023-07-20T14:08:33;1.60;;;0.68;;
61756;SDS011;57225;61.460;24.060;2023-07-20T14:11:19;1.05;;;0.60;;
61756;SDS011;57225;61.460;24.060;2023-07-20T14:14:04;3.85;;;0.80;;
61756;SDS011;57225;61.460;24.060;2023-07-20T14:16:48;2.50;;;0.80;;
61756;SDS011;57225;61.460;24.060;2023-07-20T14:19:33;0.90;;;0.60;;
61756;SDS011;57225;61.460;24.060;2023-07-20T14:22:18;1.45;;;0.80;;
61756;SDS011;57225;61.460;24.060;2023-07-20T14:25:03;1.92;;;0.70;;
61756;SDS011;57225;61.460;24.060;2023-07-20T14:27:48;1.80;;;0.77;;
61756;SDS011;57225;61.460;24.060;2023-07-20T14:30:33;1.95;;;0.75;;
61756;SDS011;57225;61.460;24.060;2023-07-20T14:33:18;2.08;;;0.70;;
61756;SDS011;57225;61.460;24.060;2023-07-20T14:36:02;0.93;;;0.50;;
61756;SDS011;57225;61.460;24.060;2023-07-20T14:38:48;1.95;;;0.65;;
61756;SDS011;57225;61.460;24.060;2023-07-20T14:41:32;1.52;;;0.60;;
61756;SDS011;57225;61.460;24.060;2023-07-20T14:44:17;1.50;;;0.70;;
61756;SDS011;57225;61.460;24.060;2023-07-20T14:47:01;3.72;;;0.80;;
61756;SDS011;57225;61.460;24.060;2023-07-20T14:49:46;3.53;;;0.60;;
61756;SDS011;57225;61.460;24.060;2023-07-20T14:52:30;1.80;;;1.00;;
61756;SDS011;57225;61.460;24.060;2023-07-20T14:55:15;0.82;;;0.60;;
61756;SDS011;57225;61.460;24.060;2023-07-20T14:58:00;3.42;;;0.80;;
61756;SDS011;57225;61.460;24.060;2023-07-20T15:01:03;0.73;;;0.52;;
61756;SDS011;57225;61.460;24.060;2023-07-20T15:03:59;1.85;;;0.52;;
61756;SDS011;57225;61.460;24.060;2023-07-20T15:06:44;0.73;;;0.40;;
61756;SDS011;57225;61.460;24.060;2023-07-20T15:09:29;0.90;;;0.63;;
61756;SDS011;57225;61.460;24.060;2023-07-20T15:12:14;3.03;;;0.60;;
61756;SDS011;57225;61.460;24.060;2023-07-20T15:15:09;4.40;;;1.15;;
61756;SDS011;57225;61.460;24.060;2023-07-20T15:17:59;1.50;;;1.10;;
61756;SDS011;57225;61.460;24.060;2023-07-20T15:20:43;1.40;;;0.70;;
61756;SDS011;57225;61.460;24.060;2023-07-20T15:23:28;2.45;;;0.57;;
61756;SDS011;57225;61.460;24.060;2023-07-20T15:26:12;1.50;;;0.52;;
61756;SDS011;57225;61.460;24.060;2023-07-20T15:28:57;0.85;;;0.50;;
61756;SDS011;57225;61.460;24.060;2023-07-20T15:31:41;1.17;;;0.40;;
61756;SDS011;57225;61.460;24.060;2023-07-20T15:34:26;0.93;;;0.50;;
61756;SDS011;57225;61.460;24.060;2023-07-20T15:37:11;0.90;;;0.50;;
61756;SDS011;57225;61.460;24.060;2023-07-20T15:39:56;0.52;;;0.50;;
61756;SDS011;57225;61.460;24.060;2023-07-20T15:42:40;2.00;;;0.65;;
61756;SDS011;57225;61.460;24.060;2023-07-20T15:45:25;0.70;;;0.70;;
61756;SDS011;57225;61.460;24.060;2023-07-20T15:48:12;0.70;;;0.70;;
61756;SDS011;57225;61.460;24.060;2023-07-20T15:50:56;2.85;;;0.70;;
61756;SDS011;57225;61.460;24.060;2023-07-20T15:53:41;2.20;;;0.80;;
61756;SDS011;57225;61.460;24.060;2023-07-20T15:56:25;0.70;;;0.60;;
61756;SDS011;57225;61.460;24.060;2023-07-20T15:59:10;3.08;;;0.70;;
61756;SDS011;57225;61.460;24.060;2023-07-20T16:01:56;2.05;;;0.80;;
61756;SDS011;57225;61.460;24.060;2023-07-20T16:04:40;2.10;;;0.50;;
61756;SDS011;57225;61.460;24.060;2023-07-20T16:07:29;1.42;;;0.90;;
61756;SDS011;57225;61.460;24.060;2023-07-20T16:10:15;0.98;;;0.73;;
61756;SDS011;57225;61.460;24.060;2023-07-20T16:12:59;1.27;;;0.70;;
61756;SDS011;57225;61.460;24.060;2023-07-20T16:15:44;2.08;;;0.90;;
61756;SDS011;57225;61.460;24.060;2023-07-20T16:18:29;1.95;;;0.80;;
61756;SDS011;57225;61.460;24.060;2023-07-20T16:21:13;1.30;;;0.65;;
61756;SDS011;57225;61.460;24.060;2023-07-20T16:23:58;3.35;;;0.80;;
61756;SDS011;57225;61.460;24.060;2023-07-20T16:26:42;0.85;;;0.60;;
61756;SDS011;57225;61.460;24.060;2023-07-20T16:29:27;3.78;;;0.90;;
61756;SDS011;57225;61.460;24.060;2023-07-20T16:32:11;2.00;;;0.88;;
61756;SDS011;57225;61.460;24.060;2023-07-20T16:34:56;1.40;;;0.80;;
61756;SDS011;57225;61.460;24.060;2023-07-20T16:37:40;2.45;;;0.77;;
61756;SDS011;57225;61.460;24.060;2023-07-20T16:40:25;1.40;;;0.90;;